Time;durP1;ratioP1;P1;durP2;ratioP2;P2;SDS_P1;SDS_P2;PMS_P1;PMS_P2;Temp;Humidity;BMP_temperature;BMP_pressure;BME280_temperature;BME280_humidity;BME280_pressure;Samples;Min_cycle;Max_cycle;Signal;HPM_P1;HPM_P2
2021/09/30 00:00:13;;;;;;;;;;;;;;;12.74;97.71;98611.72;1746593;82;20284;-83
2021/09/30 00:02:41;;;;;;;;;;;;;;;12.71;99.20;98604.91;1746603;82;20194;-83
2021/09/30 00:05:07;;;;;;;;;;;;;;;12.78;98.95;98607.33;1746711;82;20174;-83
2021/09/30 00:07:33;;;;;;;;;;;;;;;12.80;97.59;98607.86;1746724;82;20159;-83
2021/09/30 00:09:59;;;;;;;;;;;;;;;12.76;97.69;98608.16;1718896;82;21095;-82
2021/09/30 00:12:32;;;;;;;;;;;;;;;12.74;97.54;98613.08;1748414;82;20173;-82
2021/09/30 00:14:59;;;;;;;;;;;;;;;12.74;96.72;98612.27;1746819;82;20127;-83
2021/09/30 00:33:48;;;;;;;;;;;;;;;13.03;96.71;98621.89;1746756;82;20159;-82
2021/09/30 00:39:35;;;;;;;;;;;;;;;12.99;94.77;98623.02;1745103;82;21175;-82
2021/09/30 00:47:00;;;;;;;;;;;;;;;12.83;98.74;98625.54;1749383;82;20466;-82
2021/09/30 00:51:58;;;;;;;;;;;;;;;12.87;98.65;98634.75;1755210;81;20139;-82
2021/09/30 00:54:37;;;;;;;;;;;;;;;12.90;96.15;98628.23;1750978;82;20418;-83
2021/09/30 01:23:18;;;;;;;;;;;;;;;12.91;97.01;98648.89;1785765;80;20145;-82
2021/09/30 02:19:51;;;;;;;;;;;;;;;13.00;99.34;98661.36;1743145;80;20156;-82
2021/09/30 02:22:23;;;;;;;;;;;;;;;12.98;99.28;98664.88;1782602;80;20198;-82
2021/09/30 02:59:18;;;;;;;;;;;;;;;12.97;97.42;98689.91;1781845;80;20406;-82
2021/09/30 03:01:45;;;;;;;;;;;;;;;12.94;97.16;98693.75;1781969;80;20148;-82
2021/09/30 03:04:11;;;;;;;;;;;;;;;12.95;96.33;98699.45;1753609;80;21053;-82
2021/09/30 03:06:37;;;;;;;;;;;;;;;12.91;97.39;98701.12;1782058;80;20205;-82
2021/09/30 03:09:05;;;;;;;;;;;;;;;12.87;99.75;98700.03;1782021;80;20266;-82
2021/09/30 03:11:33;;;;;;;;;;;;;;;12.90;98.19;98705.74;1782488;80;20183;-82
2021/09/30 03:13:59;;;;;;;;;;;;;;;12.89;98.31;98701.37;1782240;80;20137;-83
2021/09/30 03:16:31;;;;;;;;;;;;;;;12.86;99.33;98697.86;1782293;80;21150;-82
2021/09/30 03:18:56;;;;;;;;;;;;;;;12.86;100.00;98692.41;1780801;80;20104;-82
2021/09/30 03:24:04;;;;;;;;;;;;;;;12.88;99.56;98696.21;1753228;80;21648;-82
2021/09/30 03:26:31;;;;;;;;;;;;;;;12.90;99.76;98707.63;1753739;80;20322;-83
2021/09/30 03:28:56;;;;;;;;;;;;;;;12.95;98.50;98704.34;1781965;80;21047;-83
2021/09/30 03:31:22;;;;;;;;;;;;;;;13.01;98.45;98702.98;1781641;80;20158;-82
2021/09/30 03:33:48;;;;;;;;;;;;;;;13.03;98.18;98700.23;1782332;80;20108;-82
2021/09/30 03:36:14;;;;;;;;;;;;;;;13.12;98.09;98713.52;1781964;80;20147;-83
2021/09/30 03:38:40;;;;;;;;;;;;;;;13.17;97.85;98710.79;1753522;80;20162;-83
2021/09/30 03:41:06;;;;;;;;;;;;;;;13.23;97.58;98719.75;1781927;80;21134;-83
2021/09/30 03:43:31;;;;;;;;;;;;;;;13.27;97.50;98723.56;1782160;80;20206;-82
2021/09/30 03:45:57;;;;;;;;;;;;;;;13.32;97.33;98720.80;1781877;80;20647;-82
2021/09/30 03:48:23;;;;;;;;;;;;;;;13.35;97.25;98727.06;1781797;80;20154;-82
2021/09/30 03:53:46;;;;;;;;;;;;;;;13.37;96.96;98730.30;1782022;80;21113;-83
2021/09/30 03:56:30;;;;;;;;;;;;;;;13.41;97.07;98734.63;1779942;80;20420;-82
2021/09/30 04:01:18;;;;;;;;;;;;;;;13.32;98.34;98736.31;1781715;80;20133;-82
2021/09/30 04:03:44;;;;;;;;;;;;;;;13.34;97.72;98732.78;1782129;80;20608;-82
2021/09/30 04:06:10;;;;;;;;;;;;;;;13.31;98.20;98738.77;1781684;80;21915;-82
2021/09/30 04:08:37;;;;;;;;;;;;;;;13.22;98.88;98738.54;1781865;80;20152;-82
2021/09/30 04:11:03;;;;;;;;;;;;;;;13.20;98.63;98738.02;1781989;80;20108;-82
2021/09/30 04:13:28;;;;;;;;;;;;;;;13.20;98.20;98741.55;1753541;80;20131;-82
2021/09/30 04:15:55;;;;;;;;;;;;;;;13.17;97.36;98737.19;1782417;80;20148;-82
2021/09/30 04:18:21;;;;;;;;;;;;;;;13.21;97.61;98739.09;1782404;80;21027;-82
2021/09/30 04:20:46;;;;;;;;;;;;;;;13.23;97.46;98742.89;1781970;80;20245;-82
2021/09/30 04:23:12;;;;;;;;;;;;;;;13.23;97.09;98746.97;1782492;80;20171;-82
2021/09/30 04:25:38;;;;;;;;;;;;;;;13.28;97.06;98752.95;1753374;80;20143;-82
2021/09/30 04:28:04;;;;;;;;;;;;;;;13.32;97.68;98752.64;1754036;80;20258;-83
2021/09/30 04:30:30;;;;;;;;;;;;;;;13.27;97.74;98752.14;1753798;80;21045;-82
2021/09/30 04:32:55;;;;;;;;;;;;;;;13.24;96.89;98756.23;1782658;80;20191;-82
2021/09/30 04:35:21;;;;;;;;;;;;;;;13.26;97.21;98762.21;1781867;80;20186;-83
2021/09/30 04:37:47;;;;;;;;;;;;;;;13.31;97.35;98759.19;1782463;80;20210;-83
2021/09/30 04:40:13;;;;;;;;;;;;;;;13.34;97.37;98764.91;1753553;80;20203;-83
2021/09/30 04:42:39;;;;;;;;;;;;;;;13.31;97.80;98766.80;1782166;80;21020;-82
2021/09/30 04:45:06;;;;;;;;;;;;;;;13.25;96.77;98770.11;1782017;80;20262;-83
2021/09/30 04:47:32;;;;;;;;;;;;;;;13.23;96.73;98771.46;1781971;80;20184;-82
2021/09/30 04:49:57;;;;;;;;;;;;;;;13.19;96.63;98772.58;1782104;80;20135;-83
2021/09/30 04:52:23;;;;;;;;;;;;;;;13.21;97.04;98777.19;1782302;80;20321;-83
2021/09/30 04:54:49;;;;;;;;;;;;;;;13.25;97.34;98776.10;1753533;80;21067;-82
2021/09/30 04:57:15;;;;;;;;;;;;;;;13.28;97.49;98775.53;1782058;80;20727;-83
2021/09/30 04:59:41;;;;;;;;;;;;;;;13.25;97.32;98774.74;1781902;80;20168;-83
2021/09/30 05:02:07;;;;;;;;;;;;;;;13.21;97.44;98772.30;1753715;80;20687;-83
2021/09/30 05:04:33;;;;;;;;;;;;;;;13.19;97.43;98784.83;1782198;80;20152;-82
2021/09/30 05:06:59;;;;;;;;;;;;;;;13.18;96.45;98783.16;1782074;80;21179;-83
2021/09/30 05:09:25;;;;;;;;;;;;;;;13.12;96.41;98794.34;1782484;80;20137;-83
2021/09/30 05:11:53;;;;;;;;;;;;;;;13.12;97.38;98807.39;1782186;80;20415;-83
2021/09/30 05:14:19;;;;;;;;;;;;;;;13.14;97.66;98811.20;1754709;80;20137;-82
2021/09/30 05:16:45;;;;;;;;;;;;;;;13.13;96.63;98810.38;1782298;80;20155;-83
2021/09/30 05:19:10;;;;;;;;;;;;;;;13.15;96.89;98819.08;1782013;80;21062;-82
2021/09/30 05:21:36;;;;;;;;;;;;;;;13.16;97.81;98831.62;1781966;80;20729;-82
2021/09/30 05:24:02;;;;;;;;;;;;;;;13.17;98.08;98831.07;1753808;80;20225;-82
2021/09/30 05:26:28;;;;;;;;;;;;;;;13.18;97.49;98829.43;1782105;80;20143;-82
2021/09/30 05:28:56;;;;;;;;;;;;;;;13.21;97.01;98838.42;1782206;80;20222;-82
2021/09/30 05:31:21;;;;;;;;;;;;;;;13.25;97.46;98842.78;1781882;80;21880;-82
2021/09/30 05:33:47;;;;;;;;;;;;;;;13.32;97.52;98846.55;1781970;80;20167;-82
2021/09/30 05:36:13;;;;;;;;;;;;;;;13.33;96.83;98849.02;1782356;80;20179;-82
2021/09/30 05:38:39;;;;;;;;;;;;;;;13.35;96.35;98851.45;1782182;80;20171;-82
2021/09/30 05:41:05;;;;;;;;;;;;;;;13.35;96.62;98853.62;1781948;80;20151;-82
2021/09/30 05:43:34;;;;;;;;;;;;;;;13.35;96.39;98854.18;1782166;80;21066;-82
2021/09/30 05:46:00;;;;;;;;;;;;;;;13.30;96.46;98854.99;1781407;80;20133;-82
2021/09/30 05:48:26;;;;;;;;;;;;;;;13.30;97.50;98855.54;1781968;80;20164;-82
2021/09/30 05:50:52;;;;;;;;;;;;;;;13.37;97.24;98860.16;1781752;80;20171;-82
2021/09/30 05:53:18;;;;;;;;;;;;;;;13.38;97.13;98865.86;1782051;80;20202;-82
2021/09/30 05:55:44;;;;;;;;;;;;;;;13.38;97.06;98869.95;1782265;80;21043;-82
2021/09/30 05:58:10;;;;;;;;;;;;;;;13.41;96.65;98868.83;1781976;80;20417;-82
2021/09/30 06:01:33;;;;;;;;;;;;;;;13.46;96.67;98876.99;1781777;80;20718;-82
2021/09/30 06:13:49;;;;;;;;;;;;;;;13.39;93.63;98898.24;1748181;82;20158;-82
2021/09/30 06:16:12;;;;;;;;;;;;;;;13.46;94.11;98903.41;1746356;82;20503;-83
2021/09/30 06:18:36;;;;;;;;;;;;;;;13.45;94.23;98906.67;1746253;82;20158;-83
2021/09/30 06:21:02;;;;;;;;;;;;;;;13.42;94.06;98915.95;1778790;80;21077;-83
2021/09/30 06:23:27;;;;;;;;;;;;;;;13.36;93.66;98919.22;1748268;82;20183;-82
2021/09/30 06:25:53;;;;;;;;;;;;;;;13.32;92.83;98933.64;1746428;82;20220;-82
2021/09/30 06:28:19;;;;;;;;;;;;;;;13.29;92.79;98932.84;1778967;80;20577;-82
2021/09/30 06:30:45;;;;;;;;;;;;;;;13.35;92.96;98939.38;1746371;82;20229;-83
2021/09/30 06:33:10;;;;;;;;;;;;;;;13.33;90.62;98947.00;1748185;82;21818;-83
2021/09/30 06:35:36;;;;;;;;;;;;;;;13.30;90.74;98950.26;1746265;82;20181;-83
2021/09/30 06:38:02;;;;;;;;;;;;;;;13.30;90.77;98946.17;1779524;80;20234;-83
2021/09/30 06:40:29;;;;;;;;;;;;;;;13.19;90.08;98949.47;1746431;82;20169;-83
2021/09/30 06:42:55;;;;;;;;;;;;;;;13.24;90.93;98955.42;1746691;82;20154;-83
2021/09/30 06:45:21;;;;;;;;;;;;;;;13.21;90.63;98962.25;1746415;82;21146;-82
2021/09/30 06:47:47;;;;;;;;;;;;;;;13.24;91.16;98964.44;1746838;82;20212;-83
2021/09/30 06:50:13;;;;;;;;;;;;;;;13.16;89.87;98970.92;1746481;82;20181;-83
2021/09/30 06:52:39;;;;;;;;;;;;;;;13.14;89.86;98964.94;1746656;82;20146;-83
2021/09/30 06:55:06;;;;;;;;;;;;;;;12.95;90.40;98966.04;1746533;82;20256;-82
2021/09/30 06:57:32;;;;;;;;;;;;;;;12.91;91.25;98963.61;1746685;82;21124;-83
2021/09/30 07:00:01;;;;;;;;;;;;;;;12.83;91.71;98960.88;1746341;82;20143;-83
2021/09/30 07:02:26;;;;;;;;;;;;;;;12.49;90.61;98970.63;1746274;82;20151;-83
2021/09/30 07:04:51;;;;;;;;;;;;;;;12.37;86.35;98981.18;1746582;82;20232;-83
2021/09/30 07:07:17;;;;;;;;;;;;;;;12.34;85.78;98988.52;1746767;82;20193;-83
2021/09/30 07:09:45;;;;;;;;;;;;;;;12.20;85.80;99000.15;1746538;82;21064;-82
2021/09/30 07:12:10;;;;;;;;;;;;;;;12.20;85.48;98996.08;1717697;82;20127;-83
2021/09/30 07:14:36;;;;;;;;;;;;;;;12.17;86.38;99000.15;1747031;82;20228;-82
2021/09/30 07:17:02;;;;;;;;;;;;;;;12.13;86.67;99010.75;1746747;82;20241;-83
2021/09/30 07:19:28;;;;;;;;;;;;;;;12.11;87.18;99010.17;1746779;82;20135;-83
2021/09/30 07:21:54;;;;;;;;;;;;;;;12.15;87.21;99010.48;1746585;82;21161;-83
2021/09/30 07:24:20;;;;;;;;;;;;;;;12.14;86.86;99011.02;1748074;82;20204;-83
2021/09/30 07:26:45;;;;;;;;;;;;;;;12.10;86.81;99011.26;1746665;82;20685;-83
2021/09/30 07:29:12;;;;;;;;;;;;;;;12.06;85.85;99012.07;1779066;80;20190;-83
2021/09/30 07:31:38;;;;;;;;;;;;;;;12.01;85.75;99015.56;1746908;82;20139;-83
2021/09/30 07:34:04;;;;;;;;;;;;;;;11.88;86.40;99016.06;1746669;82;21064;-83
2021/09/30 07:36:31;;;;;;;;;;;;;;;11.88;85.45;99022.00;1746196;82;20155;-81
2021/09/30 07:39:02;;;;;;;;;;;;;;;11.98;86.08;99028.88;1716906;82;20398;-80
2021/09/30 07:41:30;;;;;;;;;;;;;;;12.03;86.50;99031.05;1721027;82;20206;-80
2021/09/30 07:43:56;;;;;;;;;;;;;;;12.06;85.88;99033.27;1751529;82;20177;-79
2021/09/30 07:46:22;;;;;;;;;;;;;;;12.17;86.30;99040.09;1751223;82;21014;-80
2021/09/30 07:48:52;;;;;;;;;;;;;;;12.20;85.63;99044.44;1747075;82;20228;-80
2021/09/30 07:51:24;;;;;;;;;;;;;;;12.30;85.79;99049.91;1734934;82;20403;-80
2021/09/30 07:53:51;;;;;;;;;;;;;;;12.33;84.25;99050.76;1751316;81;20161;-80
2021/09/30 07:56:18;;;;;;;;;;;;;;;12.34;83.52;99057.02;1723634;82;20130;-81
2021/09/30 07:58:46;;;;;;;;;;;;;;;12.48;84.62;99057.34;1716560;83;20437;-80
2021/09/30 08:01:12;;;;;;;;;;;;;;;12.61;84.92;99051.39;1713989;83;20239;-81
2021/09/30 08:03:40;;;;;;;;;;;;;;;12.80;85.67;99048.44;1708347;83;20212;-82
2021/09/30 08:06:08;;;;;;;;;;;;;;;12.87;85.84;99054.44;1734383;82;20171;-82
2021/09/30 08:09:27;;;;;;;;;;;;;;;12.96;85.49;99060.98;1723174;82;20222;-81
2021/09/30 08:11:12;;;;;;;;;;;;;;;12.91;81.59;99065.06;1732568;80;21185;-83
2021/09/30 08:13:53;;;;;;;;;;;;;;;12.87;81.88;99067.22;1700767;83;20157;-82
2021/09/30 08:16:14;;;;;;;;;;;;;;;12.98;83.96;99070.22;1728575;82;20135;-82
2021/09/30 08:18:46;;;;;;;;;;;;;;;13.02;83.07;99070.52;1719706;83;20149;-81
2021/09/30 08:21:15;;;;;;;;;;;;;;;13.02;79.63;99067.25;1720839;83;20158;-84
2021/09/30 08:23:41;;;;;;;;;;;;;;;13.12;79.62;99067.26;1721331;83;21048;-84
2021/09/30 08:26:07;;;;;;;;;;;;;;;13.11;77.79;99073.80;1694491;83;20180;-84
2021/09/30 08:28:35;;;;;;;;;;;;;;;13.14;81.18;99081.95;1695024;83;20467;-84
2021/09/30 08:31:01;;;;;;;;;;;;;;;13.15;82.24;99083.03;1695207;83;20134;-84
2021/09/30 08:33:26;;;;;;;;;;;;;;;13.02;78.56;99082.22;1721287;83;20187;-83
2021/09/30 08:35:52;;;;;;;;;;;;;;;13.03;79.87;99087.93;1721119;83;21150;-84
2021/09/30 08:38:18;;;;;;;;;;;;;;;13.03;81.70;99087.11;1721282;83;20191;-84
2021/09/30 08:40:46;;;;;;;;;;;;;;;13.04;82.20;99094.19;1721048;83;20211;-84
2021/09/30 08:43:12;;;;;;;;;;;;;;;13.06;81.58;99092.82;1721379;83;20372;-83
2021/09/30 08:45:37;;;;;;;;;;;;;;;13.07;82.04;99093.63;1721121;83;20148;-83
2021/09/30 08:48:05;;;;;;;;;;;;;;;13.10;82.08;99094.48;1721211;83;21096;-83
2021/09/30 08:50:38;;;;;;;;;;;;;;;13.13;81.38;99095.29;1744938;81;20162;-84
2021/09/30 08:53:02;;;;;;;;;;;;;;;13.05;82.06;99095.81;1778129;80;20192;-84
2021/09/30 08:55:28;;;;;;;;;;;;;;;13.04;80.66;99097.72;1748456;82;20220;-84
2021/09/30 08:57:54;;;;;;;;;;;;;;;13.11;81.48;99103.73;1749142;82;20177;-83
2021/09/30 09:00:20;;;;;;;;;;;;;;;13.10;78.33;99108.08;1749405;82;21169;-84
2021/09/30 09:02:48;;;;;;;;;;;;;;;13.04;79.83;99107.79;1749088;82;20471;-84
2021/09/30 09:05:14;;;;;;;;;;;;;;;13.05;80.41;99108.06;1749412;82;20151;-84
2021/09/30 09:07:42;;;;;;;;;;;;;;;13.01;79.28;99113.23;1749353;82;20403;-84
2021/09/30 09:10:11;;;;;;;;;;;;;;;12.90;79.21;99121.08;1747666;82;20135;-85
2021/09/30 09:12:37;;;;;;;;;;;;;;;12.80;77.32;99116.43;1749231;82;21128;-83
2021/09/30 09:15:03;;;;;;;;;;;;;;;12.80;78.80;99123.77;1749433;82;20414;-83
2021/09/30 09:17:29;;;;;;;;;;;;;;;12.78;80.07;99124.05;1719898;82;20139;-83
2021/09/30 09:19:57;;;;;;;;;;;;;;;12.77;80.58;99126.49;1749705;82;20256;-84
2021/09/30 09:22:26;;;;;;;;;;;;;;;12.73;81.01;99127.28;1720258;82;20172;-83
2021/09/30 09:25:06;;;;;;;;;;;;;;;12.73;81.14;99119.94;1749520;82;21185;-83
2021/09/30 09:27:48;;;;;;;;;;;;;;;12.70;80.83;99124.02;1749188;82;20297;-83
2021/09/30 09:30:28;;;;;;;;;;;;;;;12.62;81.40;99128.61;1749577;82;20131;-83
2021/09/30 09:33:07;;;;;;;;;;;;;;;12.63;81.82;99128.88;1749410;82;20155;-84
2021/09/30 09:35:59;;;;;;;;;;;;;;;12.60;81.34;99135.41;1715053;82;20446;-83
2021/09/30 09:38:27;;;;;;;;;;;;;;;12.58;81.26;99141.11;1750035;82;21051;-83
2021/09/30 09:40:55;;;;;;;;;;;;;;;12.55;81.68;99140.27;1749273;82;20139;-84
2021/09/30 09:43:36;;;;;;;;;;;;;;;12.60;81.74;99146.28;1749508;82;20139;-83
2021/09/30 09:46:02;;;;;;;;;;;;;;;12.57;82.08;99149.00;1749350;82;20494;-83
2021/09/30 09:48:32;;;;;;;;;;;;;;;12.52;81.96;99148.14;1720655;82;20230;-83
2021/09/30 09:50:56;;;;;;;;;;;;;;;12.53;82.37;99151.14;1748975;81;21063;-83
2021/09/30 09:53:27;;;;;;;;;;;;;;;12.59;82.39;99148.18;1749987;82;20157;-82
2021/09/30 09:55:53;;;;;;;;;;;;;;;12.69;82.26;99140.61;1748162;82;20139;-84
2021/09/30 09:58:19;;;;;;;;;;;;;;;12.82;82.15;99143.36;1749173;82;20177;-83
2021/09/30 10:00:54;;;;;;;;;;;;;;;12.85;81.67;99139.58;1749372;82;20178;-84
2021/09/30 10:03:23;;;;;;;;;;;;;;;12.85;79.31;99140.94;1749287;82;20542;-84
2021/09/30 10:05:49;;;;;;;;;;;;;;;12.90;81.04;99140.97;1749262;82;20438;-83
2021/09/30 10:08:15;;;;;;;;;;;;;;;12.97;80.94;99141.50;1749272;82;20167;-82
2021/09/30 10:10:41;;;;;;;;;;;;;;;13.02;81.48;99148.88;1749313;82;20135;-84
2021/09/30 10:13:06;;;;;;;;;;;;;;;13.08;81.96;99148.36;1749473;82;20080;-83
2021/09/30 10:15:33;;;;;;;;;;;;;;;13.10;81.02;99148.90;1749503;82;21064;-84
2021/09/30 10:17:58;;;;;;;;;;;;;;;13.12;81.66;99152.98;1743868;82;20219;-82
2021/09/30 10:20:25;;;;;;;;;;;;;;;13.14;81.60;99160.32;1690395;83;20267;-83
2021/09/30 10:22:54;;;;;;;;;;;;;;;13.12;81.15;99155.70;1719250;83;20232;-83
2021/09/30 10:25:20;;;;;;;;;;;;;;;13.10;81.49;99156.52;1719255;83;20141;-84
2021/09/30 10:27:55;;;;;;;;;;;;;;;13.07;81.00;99163.02;1719344;83;21110;-84
2021/09/30 10:30:38;;;;;;;;;;;;;;;13.03;81.07;99161.94;1719464;83;20496;-85
2021/09/30 10:33:06;;;;;;;;;;;;;;;13.01;81.27;99158.12;1718466;83;20145;-85
2021/09/30 10:35:34;;;;;;;;;;;;;;;13.02;80.59;99158.94;1719333;83;20443;-84
2021/09/30 10:38:23;;;;;;;;;;;;;;;12.98;80.80;99164.91;1719304;83;20141;-84
2021/09/30 10:41:09;;;;;;;;;;;;;;;12.92;80.59;99161.91;1719465;83;21064;-84
2021/09/30 10:43:44;;;;;;;;;;;;;;;12.91;81.03;99159.46;1719394;83;20142;-85
2021/09/30 10:46:26;;;;;;;;;;;;;;;12.91;80.45;99162.19;1716921;83;20200;-85
2021/09/30 10:48:53;;;;;;;;;;;;;;;12.82;80.58;99165.11;1719744;83;20306;-83
2021/09/30 10:51:19;;;;;;;;;;;;;;;12.82;81.12;99161.88;1666885;83;20125;-84
2021/09/30 10:53:50;;;;;;;;;;;;;;;12.84;81.44;99158.34;1719770;83;21208;-83
2021/09/30 10:56:41;;;;;;;;;;;;;;;12.87;81.22;99159.70;1719362;83;20430;-82
2021/09/30 10:59:19;;;;;;;;;;;;;;;12.83;81.42;99168.95;1719614;83;20441;-82
2021/09/30 11:01:48;;;;;;;;;;;;;;;12.71;81.35;99166.98;1718803;83;20673;-84
2021/09/30 11:04:15;;;;;;;;;;;;;;;12.63;81.12;99168.31;1691291;83;20140;-83
2021/09/30 11:06:41;;;;;;;;;;;;;;;12.49;81.42;99166.36;1719540;83;21777;-85
2021/09/30 11:09:21;;;;;;;;;;;;;;;12.44;82.31;99171.21;1719583;83;20224;-84
2021/09/30 11:11:49;;;;;;;;;;;;;;;12.38;82.33;99161.38;1719534;83;20448;-85
2021/09/30 11:14:20;;;;;;;;;;;;;;;12.38;82.53;99155.95;1719835;83;20141;-82
2021/09/30 11:16:48;;;;;;;;;;;;;;;12.37;83.17;99151.05;1719653;83;20141;-84
2021/09/30 11:19:28;;;;;;;;;;;;;;;12.32;85.03;99151.59;1691155;83;21134;-81
2021/09/30 11:21:55;;;;;;;;;;;;;;;12.33;83.88;99151.31;1719444;83;20166;-82
2021/09/30 11:24:23;;;;;;;;;;;;;;;12.31;85.30;99152.12;1719600;83;20248;-84
2021/09/30 11:26:53;;;;;;;;;;;;;;;12.39;84.65;99149.42;1719570;83;20134;-84
2021/09/30 11:29:27;;;;;;;;;;;;;;;12.46;84.67;99148.65;1720011;83;20142;-85
2021/09/30 11:32:02;;;;;;;;;;;;;;;12.54;84.17;99152.23;1719690;83;21674;-85
2021/09/30 11:34:34;;;;;;;;;;;;;;;12.53;83.73;99147.87;1719493;83;20142;-82
2021/09/30 11:37:03;;;;;;;;;;;;;;;12.63;83.30;99145.20;1720156;83;20133;-82
2021/09/30 11:39:33;;;;;;;;;;;;;;;12.67;83.21;99142.78;1711423;83;20405;-82
2021/09/30 11:41:59;;;;;;;;;;;;;;;12.74;82.75;99149.34;1690724;83;20137;-81
2021/09/30 11:44:24;;;;;;;;;;;;;;;12.81;82.54;99152.60;1719582;83;21146;-82
2021/09/30 11:46:54;;;;;;;;;;;;;;;12.77;82.43;99146.89;1719400;83;20195;-82
2021/09/30 11:49:20;;;;;;;;;;;;;;;12.74;81.80;99153.42;1719730;83;20445;-84
2021/09/30 11:51:54;;;;;;;;;;;;;;;12.66;82.23;99152.84;1738207;82;20175;-83
2021/09/30 11:54:23;;;;;;;;;;;;;;;12.62;82.15;99154.98;1737644;82;20181;-82
2021/09/30 11:56:53;;;;;;;;;;;;;;;12.63;82.20;99157.43;1707570;82;21048;-85
2021/09/30 11:59:22;;;;;;;;;;;;;;;12.56;81.92;99158.24;1738205;82;20140;-85
2021/09/30 12:01:50;;;;;;;;;;;;;;;12.55;82.27;99154.40;1738216;82;20141;-85
2021/09/30 12:04:49;;;;;;;;;;;;;;;12.59;82.51;99154.98;1738427;82;20165;-82
2021/09/30 12:07:23;;;;;;;;;;;;;;;12.64;82.43;99154.17;1711649;82;20200;-85
2021/09/30 12:09:51;;;;;;;;;;;;;;;12.61;82.58;99156.89;1738338;82;21718;-85
2021/09/30 12:12:17;;;;;;;;;;;;;;;12.67;82.61;99149.03;1738549;82;20203;-82
2021/09/30 12:14:45;;;;;;;;;;;;;;;12.61;83.40;99148.73;1738351;82;20206;-85
2021/09/30 12:17:16;;;;;;;;;;;;;;;12.65;83.31;99154.47;1738284;82;20144;-85
2021/09/30 12:19:44;;;;;;;;;;;;;;;12.64;83.75;99148.19;1736970;82;20207;-84
2021/09/30 12:22:14;;;;;;;;;;;;;;;12.74;84.27;99146.08;1711089;82;21785;-82
2021/09/30 12:24:46;;;;;;;;;;;;;;;12.89;83.54;99153.45;1710534;82;20136;-85
2021/09/30 12:27:12;;;;;;;;;;;;;;;12.91;83.62;99149.94;1737418;82;20148;-82
2021/09/30 12:29:45;;;;;;;;;;;;;;;12.94;83.39;99147.49;1710908;82;20140;-85
2021/09/30 12:32:13;;;;;;;;;;;;;;;13.01;83.50;99150.52;1738623;82;20141;-82
2021/09/30 12:34:39;;;;;;;;;;;;;;;13.02;82.75;99151.59;1738514;82;21136;-83
2021/09/30 12:37:05;;;;;;;;;;;;;;;13.08;83.14;99156.52;1738355;82;20531;-84
2021/09/30 12:39:31;;;;;;;;;;;;;;;13.13;82.03;99156.52;1738425;82;20229;-84
2021/09/30 12:42:12;;;;;;;;;;;;;;;13.17;81.49;99154.36;1738447;82;20132;-85
2021/09/30 12:44:42;;;;;;;;;;;;;;;13.09;81.19;99154.07;1709184;82;20137;-82
2021/09/30 12:47:05;;;;;;;;;;;;;;;13.15;81.88;99148.34;1737843;82;21249;-85
2021/09/30 12:49:31;;;;;;;;;;;;;;;13.22;81.74;99146.22;1738325;82;20749;-83
2021/09/30 12:51:57;;;;;;;;;;;;;;;13.30;81.55;99144.06;1738061;82;20167;-82
2021/09/30 12:54:26;;;;;;;;;;;;;;;13.28;81.45;99147.06;1738419;82;20171;-82
2021/09/30 12:56:52;;;;;;;;;;;;;;;13.28;81.44;99147.60;1738384;82;20176;-82
2021/09/30 12:59:19;;;;;;;;;;;;;;;13.20;81.17;99149.77;1738469;82;21089;-84
2021/09/30 13:01:45;;;;;;;;;;;;;;;13.17;81.24;99146.20;1738377;82;20157;-83
2021/09/30 13:04:22;;;;;;;;;;;;;;;13.17;81.18;99147.56;1738176;82;20175;-85
2021/09/30 13:06:55;;;;;;;;;;;;;;;13.13;81.17;99130.66;1738342;82;20424;-86
2021/09/30 13:09:23;;;;;;;;;;;;;;;13.18;80.96;99142.38;1738611;82;20228;-82
2021/09/30 13:11:50;;;;;;;;;;;;;;;13.18;80.93;99142.38;1709974;82;21623;-82
2021/09/30 13:14:28;;;;;;;;;;;;;;;13.21;80.69;99136.97;1738103;82;20476;-85
2021/09/30 13:17:12;;;;;;;;;;;;;;;13.20;80.28;99133.98;1738504;82;20412;-82
2021/09/30 13:19:55;;;;;;;;;;;;;;;13.13;80.75;99139.64;1711279;82;20133;-82
2021/09/30 13:22:29;;;;;;;;;;;;;;;13.18;80.47;99138.30;1738446;82;20153;-82
2021/09/30 13:24:55;;;;;;;;;;;;;;;13.12;79.99;99140.73;1711761;82;21014;-85
2021/09/30 13:27:23;;;;;;;;;;;;;;;13.03;79.92;99133.37;1738595;82;20259;-82
2021/09/30 13:29:49;;;;;;;;;;;;;;;12.99;80.37;99133.91;1738372;82;20140;-84
2021/09/30 13:32:15;;;;;;;;;;;;;;;13.04;80.25;99136.36;1738924;82;20235;-85
2021/09/30 13:34:41;;;;;;;;;;;;;;;13.06;80.42;99136.36;1738631;82;20207;-82
2021/09/30 13:37:07;;;;;;;;;;;;;;;13.03;80.24;99138.81;1738298;82;21140;-82
2021/09/30 13:39:33;;;;;;;;;;;;;;;13.05;80.39;99140.71;1738366;82;20428;-85
2021/09/30 13:41:59;;;;;;;;;;;;;;;13.07;80.33;99141.25;1738388;82;20655;-82
2021/09/30 13:44:25;;;;;;;;;;;;;;;13.04;80.42;99139.90;1738072;82;20161;-82
2021/09/30 13:46:51;;;;;;;;;;;;;;;12.98;79.99;99134.97;1738366;82;20167;-83
2021/09/30 13:49:17;;;;;;;;;;;;;;;12.92;80.54;99138.79;1738198;82;21086;-85
2021/09/30 13:51:42;;;;;;;;;;;;;;;12.92;80.54;99141.51;1735882;82;20182;-82
2021/09/30 13:54:08;;;;;;;;;;;;;;;12.92;80.58;99136.06;1735096;82;20218;-82
2021/09/30 13:56:34;;;;;;;;;;;;;;;12.93;80.66;99131.44;1735429;82;20159;-82
2021/09/30 13:59:00;;;;;;;;;;;;;;;12.96;80.55;99138.52;1735107;82;20156;-86
2021/09/30 14:01:26;;;;;;;;;;;;;;;12.95;81.56;99137.42;1735053;82;21309;-82
2021/09/30 14:03:54;;;;;;;;;;;;;;;13.05;80.60;99132.00;1734948;82;37648;-81
2021/09/30 14:06:20;;;;;;;;;;;;;;;12.98;80.40;99132.25;1706135;82;20129;-81
2021/09/30 14:08:46;;;;;;;;;;;;;;;12.93;80.85;99132.26;1704997;82;20473;-81
2021/09/30 14:11:13;;;;;;;;;;;;;;;12.95;81.22;99127.91;1706410;82;20168;-81
2021/09/30 14:13:40;;;;;;;;;;;;;;;12.98;81.58;99127.36;1735276;82;21034;-86
2021/09/30 14:16:06;;;;;;;;;;;;;;;13.10;81.78;99131.21;1735106;82;20393;-82
2021/09/30 14:18:32;;;;;;;;;;;;;;;13.21;81.28;99120.09;1704914;82;20726;-86
2021/09/30 14:20:58;;;;;;;;;;;;;;;13.19;80.98;99128.23;1735076;82;20127;-81
2021/09/30 14:23:25;;;;;;;;;;;;;;;13.15;81.13;99117.59;1735384;82;20167;-82
2021/09/30 14:25:51;;;;;;;;;;;;;;;13.18;81.16;99115.17;1706534;82;21135;-81
2021/09/30 14:28:17;;;;;;;;;;;;;;;13.20;81.36;99113.02;1735181;82;20140;-81
2021/09/30 14:30:43;;;;;;;;;;;;;;;13.28;81.25;99114.39;1735202;82;20167;-86
2021/09/30 14:33:09;;;;;;;;;;;;;;;13.21;81.28;99114.66;1735379;82;20147;-81
2021/09/30 14:35:35;;;;;;;;;;;;;;;13.22;81.23;99114.92;1735274;82;20187;-81
2021/09/30 14:38:01;;;;;;;;;;;;;;;13.28;80.94;99107.59;1735180;82;21809;-81
2021/09/30 14:40:27;;;;;;;;;;;;;;;13.20;81.29;99107.58;1735046;82;20171;-81
2021/09/30 14:42:53;;;;;;;;;;;;;;;13.19;81.25;99111.39;1735330;82;20186;-82
2021/09/30 14:45:19;;;;;;;;;;;;;;;13.21;81.29;99107.84;1735698;82;20171;-85
2021/09/30 14:47:44;;;;;;;;;;;;;;;13.23;81.33;99111.11;1735702;82;20163;-81
2021/09/30 14:50:10;;;;;;;;;;;;;;;13.16;81.23;99109.19;1735676;82;21119;-86
2021/09/30 14:52:36;;;;;;;;;;;;;;;13.05;82.37;99106.16;1738309;82;20182;-82
2021/09/30 14:55:02;;;;;;;;;;;;;;;13.02;82.49;99123.03;1738636;82;20210;-81
2021/09/30 14:57:28;;;;;;;;;;;;;;;12.98;82.80;99119.20;1738460;82;20523;-85
2021/09/30 14:59:54;;;;;;;;;;;;;;;12.96;83.03;99117.30;1738251;82;20144;-81
2021/09/30 15:02:20;;;;;;;;;;;;;;;12.91;84.39;99122.20;1738493;82;21187;-81
2021/09/30 15:04:45;;;;;;;;;;;;;;;12.91;83.87;99118.11;1738143;82;20166;-86
2021/09/30 15:07:11;;;;;;;;;;;;;;;12.91;83.64;99116.75;1738672;82;20202;-85
2021/09/30 15:09:37;;;;;;;;;;;;;;;12.91;82.85;99114.58;1711046;82;20143;-81
2021/09/30 15:12:03;;;;;;;;;;;;;;;12.86;82.86;99118.63;1710143;82;20155;-86
2021/09/30 15:14:29;;;;;;;;;;;;;;;12.76;83.57;99122.14;1738385;82;21069;-86
2021/09/30 15:17:11;;;;;;;;;;;;;;;12.76;83.56;99111.27;1738344;82;20400;-83
2021/09/30 15:19:36;;;;;;;;;;;;;;;12.63;83.89;99115.28;1710768;82;20392;-86
2021/09/30 15:21:58;;;;;;;;;;;;;;;12.59;84.29;99113.38;1737306;82;20152;-82
2021/09/30 15:24:25;;;;;;;;;;;;;;;12.61;84.41;99114.73;1738309;82;20169;-81
2021/09/30 15:26:52;;;;;;;;;;;;;;;12.66;83.92;99109.87;1711110;82;21145;-81
2021/09/30 15:29:19;;;;;;;;;;;;;;;12.61;83.89;99108.48;1738268;82;20415;-81
2021/09/30 15:31:46;;;;;;;;;;;;;;;12.55;84.39;99119.06;1710282;82;20149;-85